createdAt,value
2018-07-23T00:02:13.654Z,24.20
2018-07-23T00:07:19.630Z,24.00
2018-07-23T00:09:52.464Z,23.90
2018-07-23T00:12:25.338Z,23.80
2018-07-23T00:14:57.901Z,23.80
2018-07-23T00:17:30.476Z,23.80
2018-07-23T00:20:02.988Z,23.70
2018-07-23T00:22:35.597Z,23.60
2018-07-23T00:25:08.205Z,23.50
2018-07-23T00:27:40.887Z,23.50
2018-07-23T00:30:15.497Z,23.40
2018-07-23T00:32:48.006Z,23.40
2018-07-23T00:35:20.383Z,23.40
2018-07-23T00:37:52.974Z,23.30
2018-07-23T00:40:25.500Z,23.30
2018-07-23T00:42:58.039Z,23.30
2018-07-23T00:45:30.668Z,23.40
2018-07-23T00:48:03.037Z,23.40
2018-07-23T00:50:35.706Z,23.40
2018-07-23T00:53:08.223Z,23.40
2018-07-23T00:55:40.699Z,23.30
2018-07-23T00:58:13.174Z,23.20
2018-07-23T01:00:45.971Z,23.30
2018-07-23T01:03:18.692Z,23.30
2018-07-23T01:05:51.442Z,23.20
2018-07-23T01:08:23.852Z,23.20
2018-07-23T01:10:56.306Z,23.20
2018-07-23T01:13:29.223Z,23.20
2018-07-23T01:16:01.953Z,23.10
2018-07-23T01:18:34.425Z,23.00
2018-07-23T01:21:07.249Z,22.90
2018-07-23T01:23:40.309Z,22.80
2018-07-23T01:26:13.680Z,22.80
2018-07-23T01:28:47.165Z,22.80
2018-07-23T01:31:20.045Z,22.80
2018-07-23T01:33:52.857Z,22.70
2018-07-23T01:36:25.744Z,22.70
2018-07-23T01:38:58.538Z,22.70
2018-07-23T01:41:32.512Z,22.70
2018-07-23T01:44:05.432Z,22.60
2018-07-23T01:46:38.167Z,22.50
2018-07-23T01:49:10.952Z,22.50
2018-07-23T01:51:43.650Z,22.40
2018-07-23T01:54:16.165Z,22.40
2018-07-23T01:56:49.261Z,22.30
2018-07-23T01:59:21.839Z,22.30
2018-07-23T02:01:54.575Z,22.30
2018-07-23T02:04:27.233Z,22.20
2018-07-23T02:06:59.773Z,22.10
2018-07-23T02:09:32.400Z,22.00
2018-07-23T02:12:05.358Z,21.90
2018-07-23T02:14:37.935Z,21.80
2018-07-23T02:17:10.593Z,21.80
2018-07-23T02:19:43.107Z,21.70
2018-07-23T02:22:15.641Z,21.70
2018-07-23T02:24:48.179Z,21.60
2018-07-23T02:27:20.539Z,21.50
2018-07-23T02:29:53.189Z,21.50
2018-07-23T02:32:25.832Z,21.50
2018-07-23T02:34:58.492Z,21.50
2018-07-23T02:37:31.057Z,21.40
2018-07-23T02:40:03.700Z,21.40
2018-07-23T02:42:36.409Z,21.40
2018-07-23T02:45:09.062Z,21.40
2018-07-23T02:47:41.709Z,21.40
2018-07-23T02:50:14.374Z,21.40
2018-07-23T02:52:46.792Z,21.40
2018-07-23T02:55:19.321Z,21.50
2018-07-23T02:57:52.232Z,21.50
2018-07-23T03:00:25.535Z,21.40
2018-07-23T03:02:58.262Z,21.40
2018-07-23T03:05:30.906Z,21.40
2018-07-23T03:08:03.466Z,21.30
2018-07-23T03:10:36.027Z,21.30
2018-07-23T03:13:08.806Z,21.30
2018-07-23T03:15:41.342Z,21.30
2018-07-23T03:18:13.899Z,21.30
2018-07-23T03:20:46.601Z,21.20
2018-07-23T03:23:19.161Z,21.10
2018-07-23T03:25:51.710Z,21.10
2018-07-23T03:28:24.291Z,21.10
2018-07-23T03:30:56.933Z,21.10
2018-07-23T03:33:30.891Z,21.10
2018-07-23T03:36:03.870Z,21.20
2018-07-23T03:38:36.445Z,21.30
2018-07-23T03:41:09.091Z,21.30
2018-07-23T03:43:41.802Z,21.30
2018-07-23T03:46:15.240Z,21.30
2018-07-23T03:48:48.116Z,21.20
2018-07-23T03:51:21.553Z,21.30
2018-07-23T03:53:54.276Z,21.20
2018-07-23T03:56:26.750Z,21.20
2018-07-23T03:59:12.382Z,21.20
2018-07-23T04:01:53.433Z,21.10
2018-07-23T04:04:52.056Z,21.00
2018-07-23T04:07:34.870Z,21.00
2018-07-23T04:10:19.548Z,21.00
2018-07-23T04:13:02.847Z,20.90
2018-07-23T04:15:36.286Z,20.90
2018-07-23T04:18:08.997Z,20.90
2018-07-23T04:20:46.136Z,20.90
2018-07-23T04:23:25.715Z,21.00
2018-07-23T04:25:58.686Z,20.90
2018-07-23T04:28:31.165Z,20.90
2018-07-23T04:31:03.833Z,20.80
2018-07-23T04:33:36.191Z,20.80
2018-07-23T04:36:09.068Z,20.90
2018-07-23T04:41:12.754Z,20.80
2018-07-23T04:43:45.407Z,20.80
2018-07-23T04:46:18.706Z,20.70
2018-07-23T04:48:51.387Z,20.70
2018-07-23T04:51:24.034Z,20.70
2018-07-23T04:53:57.018Z,20.60
2018-07-23T04:56:30.466Z,20.60
2018-07-23T04:59:03.070Z,20.60
2018-07-23T05:01:35.829Z,20.50
2018-07-23T05:04:08.625Z,20.40
2018-07-23T05:06:50.295Z,20.30
2018-07-23T05:09:22.804Z,20.30
2018-07-23T05:11:55.345Z,20.20
2018-07-23T05:14:27.777Z,20.10
2018-07-23T05:17:00.338Z,20.10
2018-07-23T05:19:35.376Z,20.10
2018-07-23T05:22:08.029Z,20.10
2018-07-23T05:24:45.049Z,20.00
2018-07-23T05:27:19.727Z,20.00
2018-07-23T05:29:59.544Z,20.00
2018-07-23T05:32:41.775Z,19.90
2018-07-23T05:35:23.175Z,19.90
2018-07-23T05:37:55.894Z,19.90
2018-07-23T05:40:28.492Z,19.90
2018-07-23T05:43:00.984Z,19.90
2018-07-23T05:45:33.615Z,19.80
2018-07-23T05:48:06.361Z,19.80
2018-07-23T05:50:39.040Z,19.80
2018-07-23T05:53:11.873Z,19.80
2018-07-23T05:55:44.458Z,19.70
2018-07-23T05:58:16.981Z,19.70
2018-07-23T06:00:49.408Z,19.70
2018-07-23T06:03:21.947Z,19.70
2018-07-23T06:05:54.580Z,19.70
2018-07-23T06:08:27.022Z,19.70
2018-07-23T06:10:59.516Z,19.70
2018-07-23T06:13:34.946Z,19.60
2018-07-23T06:16:07.986Z,19.60
2018-07-23T06:18:40.435Z,19.60
2018-07-23T06:21:13.384Z,19.60
2018-07-23T06:23:46.271Z,19.50
2018-07-23T06:26:19.013Z,19.50
2018-07-23T06:28:51.479Z,19.50
2018-07-23T06:31:24.009Z,19.40
2018-07-23T06:33:56.464Z,19.50
2018-07-23T06:36:29.101Z,19.50
2018-07-23T06:39:01.669Z,19.50
2018-07-23T06:41:35.835Z,19.40
2018-07-23T06:44:08.686Z,19.40
2018-07-23T06:46:41.655Z,19.40
2018-07-23T06:49:14.340Z,19.30
2018-07-23T06:51:46.958Z,19.30
2018-07-23T06:54:19.727Z,19.30
2018-07-23T06:56:52.316Z,19.20
2018-07-23T06:59:25.210Z,19.20
2018-07-23T07:01:57.852Z,19.20
2018-07-23T07:04:30.342Z,19.20
2018-07-23T07:07:02.780Z,19.20
2018-07-23T07:09:35.456Z,19.20
2018-07-23T07:12:08.055Z,19.10
2018-07-23T07:14:40.538Z,19.00
2018-07-23T07:17:13.104Z,19.10
2018-07-23T07:19:45.788Z,19.10
2018-07-23T07:22:18.908Z,19.00
2018-07-23T07:24:51.642Z,19.00
2018-07-23T07:27:24.226Z,19.00
2018-07-23T07:29:56.814Z,19.10
2018-07-23T07:32:29.352Z,19.10
2018-07-23T07:35:02.043Z,19.10
2018-07-23T07:37:34.570Z,19.10
2018-07-23T07:40:07.337Z,19.10
2018-07-23T07:42:39.977Z,19.10
2018-07-23T07:45:12.544Z,19.00
2018-07-23T07:47:44.950Z,19.10
2018-07-23T07:50:17.680Z,19.10
2018-07-23T07:52:50.511Z,19.00
2018-07-23T07:55:22.994Z,19.00
2018-07-23T07:57:55.992Z,18.90
2018-07-23T08:00:28.557Z,18.90
2018-07-23T08:03:03.917Z,18.90
2018-07-23T08:05:36.830Z,18.90
2018-07-23T08:08:10.274Z,19.00
2018-07-23T08:10:43.824Z,19.00
2018-07-23T08:13:17.047Z,19.10
2018-07-23T08:15:49.585Z,19.10
2018-07-23T08:18:22.353Z,19.00
2018-07-23T08:20:55.385Z,19.00
2018-07-23T08:23:27.820Z,18.90
2018-07-23T08:26:00.285Z,19.00
2018-07-23T08:28:33.308Z,19.00
2018-07-23T08:31:17.495Z,19.10
2018-07-23T08:34:04.949Z,19.10
2018-07-23T08:36:49.751Z,19.10
2018-07-23T08:39:32.683Z,19.10
2018-07-23T08:42:06.075Z,19.00
2018-07-23T08:44:38.654Z,19.10
2018-07-23T08:47:11.528Z,19.10
2018-07-23T08:49:44.274Z,19.10
2018-07-23T08:52:16.866Z,19.10
2018-07-23T08:54:50.154Z,19.10
2018-07-23T08:57:23.951Z,19.10
2018-07-23T08:59:56.515Z,19.10
2018-07-23T09:05:00.812Z,19.00
2018-07-23T09:07:33.372Z,19.10
2018-07-23T09:10:05.734Z,19.10
2018-07-23T09:12:38.760Z,19.10
2018-07-23T09:15:16.187Z,19.10
2018-07-23T09:17:49.955Z,19.10
2018-07-23T09:20:27.969Z,19.10
2018-07-23T09:23:04.819Z,19.10
2018-07-23T09:25:45.737Z,19.10
2018-07-23T09:28:19.214Z,19.10
2018-07-23T09:30:53.925Z,19.10
2018-07-23T09:33:27.021Z,19.10
2018-07-23T09:35:59.834Z,19.10
2018-07-23T09:38:32.231Z,19.10
2018-07-23T09:41:04.931Z,19.10
2018-07-23T09:43:37.444Z,19.10
2018-07-23T09:46:11.124Z,19.10
2018-07-23T09:48:43.710Z,19.10
2018-07-23T09:51:16.420Z,19.10
2018-07-23T09:53:49.138Z,19.20
2018-07-23T09:56:21.926Z,19.20
2018-07-23T09:58:54.935Z,19.20
2018-07-23T10:01:27.845Z,19.30
2018-07-23T10:04:00.356Z,19.20
2018-07-23T10:06:32.967Z,19.20
2018-07-23T10:09:06.118Z,19.20
2018-07-23T10:14:11.857Z,19.10
2018-07-23T10:16:44.700Z,19.00
2018-07-23T10:19:17.347Z,18.90
2018-07-23T10:21:50.213Z,18.90
2018-07-23T10:24:23.483Z,18.90
2018-07-23T10:26:56.088Z,18.90
2018-07-23T10:29:28.773Z,18.90
2018-07-23T10:32:01.473Z,18.90
2018-07-23T10:34:34.745Z,19.00
2018-07-23T10:37:07.708Z,19.10
2018-07-23T10:39:40.497Z,19.00
2018-07-23T10:42:13.160Z,19.00
2018-07-23T10:44:46.006Z,19.10
2018-07-23T10:47:19.222Z,19.10
2018-07-23T10:49:51.907Z,19.00
2018-07-23T10:52:24.418Z,19.00
2018-07-23T10:54:57.039Z,19.00
2018-07-23T10:57:29.946Z,19.10
2018-07-23T11:00:02.674Z,19.20
2018-07-23T11:02:36.226Z,19.20
2018-07-23T11:05:10.220Z,19.20
2018-07-23T11:07:44.051Z,19.20
2018-07-23T11:10:16.758Z,19.30
2018-07-23T11:12:49.887Z,19.30
2018-07-23T11:15:22.790Z,19.30
2018-07-23T11:17:55.259Z,19.20
2018-07-23T11:22:59.381Z,19.30
2018-07-23T11:25:40.414Z,19.30
2018-07-23T11:28:05.767Z,19.30
2018-07-23T11:30:39.687Z,19.20
2018-07-23T11:33:12.413Z,19.20
2018-07-23T11:35:45.511Z,19.10
2018-07-23T11:38:18.286Z,19.10
2018-07-23T11:40:51.436Z,19.10
2018-07-23T11:43:24.181Z,19.00
2018-07-23T11:45:56.845Z,18.90
2018-07-23T11:48:29.673Z,18.90
2018-07-23T11:51:02.467Z,18.90
2018-07-23T11:53:35.708Z,18.90
2018-07-23T11:56:08.303Z,18.80
2018-07-23T11:58:40.929Z,18.90
2018-07-23T12:01:13.353Z,18.90
2018-07-23T12:03:46.351Z,18.80
2018-07-23T12:06:18.875Z,18.80
2018-07-23T12:08:51.637Z,19.00
2018-07-23T12:11:24.276Z,19.10
2018-07-23T12:13:57.638Z,19.10
2018-07-23T12:16:30.359Z,19.20
2018-07-23T12:19:30.087Z,19.20
2018-07-23T12:22:02.729Z,19.20
2018-07-23T12:24:35.036Z,19.20
2018-07-23T12:27:07.497Z,19.20
2018-07-23T12:29:40.102Z,19.10
2018-07-23T12:32:25.737Z,19.20
2018-07-23T12:34:58.311Z,19.10
2018-07-23T12:37:31.698Z,19.20
2018-07-23T12:40:04.259Z,19.20
2018-07-23T12:42:36.849Z,19.20
2018-07-23T12:45:09.532Z,19.20
2018-07-23T12:47:42.102Z,19.20
2018-07-23T12:50:14.863Z,19.20
2018-07-23T12:52:47.751Z,19.30
2018-07-23T12:55:20.314Z,19.40
2018-07-23T12:57:53.168Z,19.40
2018-07-23T13:00:27.120Z,19.50
2018-07-23T13:08:18.460Z,19.80
2018-07-23T13:10:53.464Z,19.90
2018-07-23T13:13:35.089Z,20.00
2018-07-23T13:18:51.382Z,20.10
2018-07-23T13:21:23.879Z,20.20
2018-07-23T13:23:57.766Z,20.20
2018-07-23T13:26:31.760Z,20.20
2018-07-23T13:29:04.351Z,20.20
2018-07-23T13:31:37.523Z,20.20
2018-07-23T13:34:10.765Z,20.20
2018-07-23T13:36:43.587Z,20.30
2018-07-23T13:39:16.281Z,20.40
2018-07-23T13:41:49.299Z,20.50
2018-07-23T13:44:21.907Z,20.60
2018-07-23T13:46:54.556Z,20.70
2018-07-23T13:49:27.216Z,20.90
2018-07-23T13:51:59.974Z,20.90
2018-07-23T13:54:32.763Z,21.00
2018-07-23T13:57:05.577Z,21.10
2018-07-23T13:59:38.372Z,21.30
2018-07-23T14:02:15.727Z,21.50
2018-07-23T14:04:54.236Z,21.60
2018-07-23T14:07:26.814Z,21.80
2018-07-23T14:09:59.423Z,21.90
2018-07-23T14:12:34.677Z,22.00
2018-07-23T14:15:08.311Z,22.00
2018-07-23T14:17:40.903Z,21.90
2018-07-23T14:20:13.650Z,21.90
2018-07-23T14:22:48.420Z,22.00
2018-07-23T14:25:21.317Z,22.00
2018-07-23T14:27:59.348Z,22.10
2018-07-23T14:30:32.019Z,22.10
2018-07-23T14:33:04.710Z,22.20
2018-07-23T14:35:37.901Z,22.30
2018-07-23T14:38:10.597Z,22.60
2018-07-23T14:40:43.197Z,22.70
2018-07-23T14:43:15.679Z,22.80
2018-07-23T14:45:48.154Z,22.90
2018-07-23T14:48:26.254Z,22.90
2018-07-23T14:50:59.940Z,22.90
2018-07-23T14:56:04.525Z,22.90
2018-07-23T14:58:37.971Z,22.90
2018-07-23T15:01:21.158Z,22.80
2018-07-23T15:03:53.803Z,22.90
2018-07-23T15:06:29.687Z,22.90
2018-07-23T15:09:02.323Z,22.90
2018-07-23T15:11:36.281Z,23.00
2018-07-23T15:14:16.341Z,23.10
2018-07-23T15:16:51.787Z,23.20
2018-07-23T15:19:30.074Z,23.20
2018-07-23T15:22:05.678Z,23.40
2018-07-23T15:24:41.982Z,23.50
2018-07-23T15:29:47.363Z,23.80
2018-07-23T15:32:23.851Z,23.90
2018-07-23T15:34:57.951Z,24.10
2018-07-23T15:37:34.729Z,24.30
2018-07-23T15:40:14.927Z,24.40
2018-07-23T15:42:51.682Z,24.40
2018-07-23T15:45:25.882Z,24.50
2018-07-23T15:47:59.739Z,24.40
2018-07-23T15:50:33.932Z,24.40
2018-07-23T15:53:07.066Z,24.30
2018-07-23T15:55:41.247Z,24.40
2018-07-23T16:00:46.875Z,24.70
2018-07-23T16:03:20.200Z,24.80
2018-07-23T16:05:55.157Z,24.90
2018-07-23T16:08:27.872Z,24.80
2018-07-23T16:11:02.175Z,24.90
2018-07-23T16:13:36.313Z,24.90
2018-07-23T16:16:11.529Z,25.10
2018-07-23T16:18:45.585Z,25.60
2018-07-23T16:21:18.210Z,25.90
2018-07-23T16:24:02.920Z,25.90
2018-07-23T16:26:36.257Z,25.90
2018-07-23T16:29:09.284Z,25.80
2018-07-23T16:31:43.472Z,25.70
2018-07-23T16:34:16.250Z,25.80
2018-07-23T16:36:49.187Z,25.70
2018-07-23T16:39:22.069Z,25.60
2018-07-23T16:41:54.704Z,25.90
2018-07-23T16:44:27.538Z,25.90
2018-07-23T16:47:02.324Z,26.00
2018-07-23T16:49:35.044Z,26.20
2018-07-23T16:52:10.216Z,26.20
2018-07-23T16:54:46.183Z,26.40
2018-07-23T16:57:19.310Z,26.50
2018-07-23T16:59:52.532Z,26.60
2018-07-23T17:02:30.354Z,26.90
2018-07-23T17:05:03.200Z,26.90
2018-07-23T17:07:36.093Z,26.90
2018-07-23T17:10:09.119Z,26.80
2018-07-23T17:12:41.732Z,26.90
2018-07-23T17:15:14.333Z,26.80
2018-07-23T17:17:46.929Z,26.80
2018-07-23T17:20:20.899Z,27.00
2018-07-23T17:22:54.236Z,27.00
2018-07-23T17:25:30.915Z,27.00
2018-07-23T17:28:04.057Z,27.20
2018-07-23T17:30:44.075Z,27.60
2018-07-23T17:33:23.969Z,27.90
2018-07-23T17:36:04.663Z,28.20
2018-07-23T17:38:37.631Z,28.40
2018-07-23T17:41:12.276Z,28.50
2018-07-23T17:43:45.518Z,28.80
2018-07-23T17:46:22.722Z,29.20
2018-07-23T17:49:05.619Z,29.40
2018-07-23T17:51:41.244Z,29.80
2018-07-23T17:54:22.287Z,29.90
2018-07-23T17:56:56.322Z,30.30
2018-07-23T17:59:29.224Z,30.60
2018-07-23T18:02:01.909Z,30.30
2018-07-23T18:04:39.266Z,30.00
2018-07-23T18:07:12.687Z,29.80
2018-07-23T18:09:45.907Z,30.00
2018-07-23T18:12:19.241Z,30.50
2018-07-23T18:14:55.296Z,30.80
2018-07-23T18:17:28.410Z,30.80
2018-07-23T18:20:01.118Z,31.10
2018-07-23T18:22:34.472Z,30.90
2018-07-23T18:25:07.141Z,31.00
2018-07-23T18:27:39.734Z,30.80
2018-07-23T18:30:14.731Z,30.90
2018-07-23T18:32:48.993Z,30.80
2018-07-23T18:35:21.958Z,31.00
2018-07-23T18:37:54.545Z,31.00
2018-07-23T18:40:27.370Z,30.80
2018-07-23T18:42:59.858Z,30.70
2018-07-23T18:45:32.890Z,30.80
2018-07-23T18:48:11.026Z,30.80
2018-07-23T18:50:43.536Z,30.60
2018-07-23T18:53:24.919Z,30.80
2018-07-23T18:55:58.711Z,31.40
2018-07-23T18:58:33.821Z,31.40
2018-07-23T19:01:09.463Z,31.40
2018-07-23T19:03:44.143Z,31.30
2018-07-23T19:08:48.259Z,30.90
2018-07-23T19:11:23.382Z,30.90
2018-07-23T19:13:58.104Z,30.60
2018-07-23T19:16:32.972Z,30.30
2018-07-23T19:19:05.664Z,30.20
2018-07-23T19:21:46.073Z,30.50
2018-07-23T20:40:55.400Z,30.30
2018-07-23T20:43:29.459Z,30.40
2018-07-23T20:46:03.082Z,30.00
2018-07-23T20:48:35.565Z,29.60
2018-07-23T20:51:10.310Z,29.60
2018-07-23T20:53:44.491Z,29.60
2018-07-23T20:56:19.266Z,29.20
2018-07-23T20:58:55.164Z,29.10
2018-07-23T21:01:39.940Z,29.00
2018-07-23T21:04:25.020Z,29.10
2018-07-23T21:09:38.276Z,29.10
2018-07-23T21:12:14.987Z,29.30
2018-07-23T21:14:50.601Z,29.40
2018-07-23T21:17:25.704Z,29.20
2018-07-23T21:20:01.566Z,28.90
2018-07-23T21:22:34.469Z,28.80
2018-07-23T21:25:07.199Z,28.70
2018-07-23T21:27:39.896Z,28.60
2018-07-23T21:30:12.610Z,28.50
2018-07-23T21:32:46.793Z,28.50
2018-07-23T21:35:21.746Z,28.50
2018-07-23T21:37:54.529Z,28.40
2018-07-23T21:40:27.667Z,28.30
2018-07-23T21:43:00.312Z,28.20
2018-07-23T21:45:37.147Z,28.10
2018-07-23T21:48:09.782Z,28.00
2018-07-23T21:50:42.415Z,28.00
2018-07-23T21:53:15.045Z,27.90
2018-07-23T21:55:47.893Z,27.80
2018-07-23T21:58:29.995Z,27.60
2018-07-23T22:01:08.500Z,27.40
2018-07-23T22:03:50.212Z,27.20
2018-07-23T22:06:31.242Z,26.90
2018-07-23T22:09:11.897Z,27.00
2018-07-23T22:24:55.197Z,27.10
2018-07-23T22:27:36.720Z,27.20
2018-07-23T22:30:18.348Z,27.60
2018-07-23T22:33:00.582Z,27.40
2018-07-23T22:35:45.186Z,27.00
2018-07-23T22:38:24.204Z,26.90
2018-07-23T22:40:59.459Z,26.70
2018-07-23T22:43:39.958Z,26.80
2018-07-23T22:46:20.472Z,26.90
2018-07-23T22:48:56.634Z,27.00
2018-07-23T22:51:36.740Z,26.90
2018-07-23T22:54:17.221Z,26.80
2018-07-23T22:56:56.863Z,26.80
2018-07-23T22:59:37.911Z,26.90
2018-07-23T23:02:14.022Z,27.00
2018-07-23T23:04:54.911Z,27.00
2018-07-23T23:07:35.961Z,27.00
2018-07-23T23:10:16.471Z,27.10
2018-07-23T23:12:56.741Z,27.00
2018-07-23T23:15:41.236Z,27.00
2018-07-23T23:18:18.607Z,26.90
2018-07-23T23:21:00.679Z,26.80
2018-07-23T23:23:40.062Z,26.70
2018-07-23T23:26:18.998Z,26.70
2018-07-23T23:28:58.398Z,26.60
2018-07-23T23:31:32.444Z,26.40
2018-07-23T23:34:13.702Z,26.30
2018-07-23T23:36:55.148Z,26.30
2018-07-23T23:39:36.006Z,26.20
2018-07-23T23:42:17.107Z,26.10
2018-07-23T23:44:57.186Z,26.00
2018-07-23T23:47:36.482Z,26.00
2018-07-23T23:50:16.829Z,25.80
2018-07-23T23:52:56.564Z,25.80
2018-07-23T23:55:36.321Z,25.70
2018-07-23T23:58:16.276Z,25.70
